createdAt,value
2019-04-20T00:02:08.358Z,14.20
2019-04-20T00:04:35.168Z,14.07
2019-04-20T00:07:00.279Z,14.37
2019-04-20T00:09:32.806Z,14.10
2019-04-20T00:12:06.881Z,14.30
2019-04-20T00:14:30.955Z,13.60
2019-04-20T00:16:56.836Z,15.03
2019-04-20T00:19:33.667Z,15.00
2019-04-20T00:22:06.239Z,13.90
2019-04-20T00:24:38.611Z,14.20
2019-04-20T00:27:27.134Z,14.90
2019-04-20T00:29:49.936Z,14.83
2019-04-20T00:32:15.573Z,15.20
2019-04-20T00:34:37.024Z,14.33
2019-04-20T00:37:02.395Z,14.63
2019-04-20T00:39:31.999Z,14.50
2019-04-20T00:42:05.643Z,14.37
2019-04-20T00:44:34.194Z,14.97
2019-04-20T00:47:08.445Z,14.57
2019-04-20T00:49:41.892Z,15.03
2019-04-20T00:52:25.325Z,14.63
2019-04-20T00:54:24.573Z,15.60
2019-04-20T00:57:07.817Z,15.33
2019-04-20T00:59:35.490Z,16.75
2019-04-20T01:02:09.099Z,15.33
2019-04-20T01:04:40.712Z,15.00
2019-04-20T01:07:14.103Z,14.90
2019-04-20T01:09:47.846Z,14.30
2019-04-20T01:12:22.561Z,16.50
2019-04-20T01:14:53.576Z,15.20
2019-04-20T01:17:13.876Z,14.30
2019-04-20T01:19:42.827Z,13.57
2019-04-20T01:22:15.965Z,14.13
2019-04-20T01:24:46.271Z,14.43
2019-04-20T01:27:24.906Z,14.20
2019-04-20T01:29:44.345Z,14.47
2019-04-20T01:32:18.769Z,14.93
2019-04-20T01:34:50.209Z,15.80
2019-04-20T01:37:25.123Z,14.60
2019-04-20T01:39:40.008Z,14.50
2019-04-20T01:42:04.457Z,14.37
2019-04-20T01:44:38.516Z,14.93
2019-04-20T01:47:03.658Z,14.10
2019-04-20T01:49:33.256Z,14.53
2019-04-20T01:52:07.118Z,15.30
2019-04-20T01:54:45.284Z,15.93
2019-04-20T01:57:11.632Z,14.07
2019-04-20T01:59:48.195Z,14.83
2019-04-20T02:02:51.558Z,14.70
2019-04-20T02:05:22.861Z,14.30
2019-04-20T02:07:48.797Z,15.43
2019-04-20T02:10:15.656Z,16.23
2019-04-20T02:12:44.005Z,15.00
2019-04-20T02:15:22.176Z,15.70
2019-04-20T02:17:46.970Z,15.67
2019-04-20T02:20:27.534Z,14.53
2019-04-20T02:22:57.009Z,14.77
2019-04-20T02:25:08.005Z,16.37
2019-04-20T02:27:43.297Z,15.73
2019-04-20T02:30:44.939Z,14.97
2019-04-20T02:33:17.902Z,14.67
2019-04-20T02:36:01.193Z,14.77
2019-04-20T02:39:05.730Z,14.77
2019-04-20T02:41:18.234Z,14.93
2019-04-20T02:44:11.688Z,15.33
2019-04-20T02:46:12.797Z,14.87
2019-04-20T02:48:41.215Z,14.87
2019-04-20T02:51:06.548Z,15.57
2019-04-20T02:53:40.631Z,14.87
2019-04-20T02:56:12.526Z,14.87
2019-04-20T02:58:35.694Z,15.07
2019-04-20T03:00:52.346Z,15.43
2019-04-20T03:03:13.467Z,16.27
2019-04-20T03:05:42.440Z,15.17
2019-04-20T03:08:17.667Z,15.43
2019-04-20T03:10:54.981Z,16.57
2019-04-20T03:13:19.759Z,16.00
2019-04-20T03:15:51.827Z,15.40
2019-04-20T03:18:17.915Z,15.87
2019-04-20T03:20:48.909Z,15.57
2019-04-20T03:26:05.543Z,15.70
2019-04-20T03:28:53.879Z,15.77
2019-04-20T03:32:03.771Z,17.75
2019-04-20T03:34:23.141Z,16.57
2019-04-20T03:36:33.734Z,15.63
2019-04-20T03:38:53.833Z,16.47
2019-04-20T03:41:14.830Z,15.60
2019-04-20T03:43:31.279Z,16.17
2019-04-20T03:46:06.560Z,16.87
2019-04-20T03:48:48.304Z,15.97
2019-04-20T03:51:27.934Z,15.33
2019-04-20T03:54:02.873Z,16.33
2019-04-20T03:56:42.282Z,16.30
2019-04-20T03:59:21.300Z,17.90
2019-04-20T04:04:44.020Z,16.03
2019-04-20T04:06:59.485Z,15.80
2019-04-20T04:09:35.805Z,16.07
2019-04-20T04:12:06.564Z,15.53
2019-04-20T04:14:22.447Z,14.67
2019-04-20T04:16:57.026Z,15.70
2019-04-20T04:19:26.021Z,16.30
2019-04-20T04:22:04.022Z,16.43
2019-04-20T04:24:29.109Z,16.23
2019-04-20T04:26:58.293Z,15.60
2019-04-20T04:29:38.033Z,16.40
2019-04-20T04:32:12.033Z,15.87
2019-04-20T04:34:33.765Z,15.07
2019-04-20T04:37:08.719Z,17.20
2019-04-20T04:39:30.943Z,16.10
2019-04-20T04:42:13.655Z,17.07
2019-04-20T04:44:23.916Z,16.73
2019-04-20T04:46:42.609Z,16.57
2019-04-20T04:49:16.537Z,16.07
2019-04-20T04:51:46.812Z,15.57
2019-04-20T04:54:16.614Z,16.93
2019-04-20T04:56:35.549Z,16.37
2019-04-20T04:59:04.365Z,18.65
2019-04-20T05:01:35.591Z,16.40
2019-04-20T05:04:23.258Z,16.33
2019-04-20T05:06:43.349Z,15.50
2019-04-20T05:09:03.295Z,16.33
2019-04-20T05:11:28.249Z,16.73
2019-04-20T05:14:03.338Z,15.87
2019-04-20T05:16:45.174Z,15.43
2019-04-20T05:19:19.029Z,18.37
2019-04-20T05:22:09.305Z,17.27
2019-04-20T05:24:42.700Z,16.00
2019-04-20T05:27:37.509Z,15.90
2019-04-20T05:29:44.721Z,16.30
2019-04-20T05:32:17.000Z,15.90
2019-04-20T05:35:07.377Z,16.47
2019-04-20T05:37:37.135Z,15.50
2019-04-20T05:39:57.756Z,15.40
2019-04-20T05:42:31.394Z,16.33
2019-04-20T05:44:56.506Z,15.50
2019-04-20T05:47:27.046Z,15.37
2019-04-20T05:49:56.064Z,16.07
2019-04-20T05:54:57.643Z,14.83
2019-04-20T05:57:26.344Z,15.40
2019-04-20T05:59:55.697Z,15.20
2019-04-20T06:02:23.140Z,14.47
2019-04-20T06:05:03.230Z,14.63
2019-04-20T06:07:21.505Z,14.37
2019-04-20T06:09:46.403Z,15.20
2019-04-20T06:14:57.169Z,14.97
2019-04-20T06:17:51.534Z,14.43
2019-04-20T06:20:21.837Z,15.83
2019-04-20T06:22:52.694Z,16.00
2019-04-20T06:28:02.021Z,14.70
2019-04-20T06:30:11.149Z,13.97
2019-04-20T06:33:31.388Z,14.67
2019-04-20T06:36:07.546Z,13.80
2019-04-20T06:38:34.894Z,14.65
2019-04-20T06:41:00.612Z,14.40
2019-04-20T06:43:12.488Z,14.47
2019-04-20T06:45:51.131Z,14.65
2019-04-20T06:48:21.677Z,14.50
2019-04-20T06:50:38.462Z,14.07
2019-04-20T06:53:23.923Z,14.47
2019-04-20T06:56:02.880Z,14.17
2019-04-20T06:58:36.099Z,13.53
2019-04-20T07:00:46.438Z,14.47
2019-04-20T07:03:33.690Z,14.13
2019-04-20T07:05:47.775Z,14.20
2019-04-20T07:08:27.610Z,13.93
2019-04-20T07:10:45.594Z,14.50
2019-04-20T07:13:06.169Z,13.00
2019-04-20T07:15:49.577Z,13.48
2019-04-20T07:18:32.369Z,13.18
2019-04-20T07:21:12.661Z,13.40
2019-04-20T07:23:41.411Z,12.70
2019-04-20T07:26:16.919Z,12.60
2019-04-20T07:28:47.489Z,13.00
2019-04-20T07:31:06.805Z,12.88
2019-04-20T07:33:43.094Z,13.00
2019-04-20T07:36:06.089Z,12.55
2019-04-20T07:38:40.611Z,12.03
2019-04-20T07:41:01.407Z,11.93
2019-04-20T07:43:30.036Z,11.48
2019-04-20T07:46:03.030Z,12.63
2019-04-20T07:48:29.284Z,12.47
2019-04-20T07:50:53.367Z,12.55
2019-04-20T07:53:25.787Z,12.93
2019-04-20T07:56:00.151Z,11.90
2019-04-20T07:58:19.817Z,12.45
2019-04-20T08:01:09.078Z,12.20
2019-04-20T08:03:38.135Z,11.97
2019-04-20T08:06:16.573Z,11.73
2019-04-20T08:08:53.159Z,11.70
2019-04-20T08:11:24.444Z,11.97
2019-04-20T08:13:56.958Z,11.53
2019-04-20T08:16:35.660Z,11.35
2019-04-20T08:18:53.895Z,11.38
2019-04-20T08:21:22.907Z,10.72
2019-04-20T08:23:49.072Z,10.82
2019-04-20T08:26:08.763Z,10.53
2019-04-20T08:28:42.595Z,10.95
2019-04-20T08:31:35.026Z,10.85
2019-04-20T08:36:41.697Z,10.95
2019-04-20T08:39:22.990Z,11.95
2019-04-20T08:41:39.806Z,11.10
2019-04-20T08:44:30.904Z,11.83
2019-04-20T08:46:45.610Z,11.03
2019-04-20T08:49:13.215Z,12.00
2019-04-20T08:51:48.336Z,11.30
2019-04-20T08:54:03.366Z,12.20
2019-04-20T08:56:25.152Z,12.47
2019-04-20T08:58:41.447Z,12.53
2019-04-20T09:01:14.088Z,12.55
2019-04-20T09:03:52.955Z,11.53
2019-04-20T09:06:23.807Z,12.88
2019-04-20T09:08:49.237Z,12.15
2019-04-20T09:11:21.824Z,13.05
2019-04-20T09:13:43.443Z,12.70
2019-04-20T09:16:04.209Z,13.60
2019-04-20T09:18:44.264Z,12.93
2019-04-20T09:21:13.726Z,12.28
2019-04-20T09:23:49.676Z,11.70
2019-04-20T09:26:20.574Z,12.73
2019-04-20T09:28:58.964Z,12.10
2019-04-20T09:31:31.378Z,14.47
2019-04-20T09:34:16.240Z,13.25
2019-04-20T09:36:47.211Z,13.08
2019-04-20T09:39:27.163Z,12.70
2019-04-20T09:42:00.694Z,14.28
2019-04-20T09:44:25.676Z,14.83
2019-04-20T09:46:56.312Z,12.75
2019-04-20T09:49:37.758Z,12.70
2019-04-20T09:52:04.746Z,13.05
2019-04-20T09:54:40.384Z,12.45
2019-04-20T09:57:09.478Z,12.07
2019-04-20T09:59:33.575Z,11.85
2019-04-20T10:01:48.908Z,12.47
2019-04-20T10:04:15.235Z,12.88
2019-04-20T10:06:43.607Z,12.45
2019-04-20T10:09:11.895Z,13.15
2019-04-20T10:11:43.753Z,12.80
2019-04-20T10:14:10.403Z,11.45
2019-04-20T10:16:40.016Z,13.20
2019-04-20T10:19:11.675Z,11.57
2019-04-20T10:21:37.988Z,12.85
2019-04-20T10:24:06.314Z,11.33
2019-04-20T10:26:34.869Z,13.15
2019-04-20T10:29:03.802Z,12.82
2019-04-20T10:31:35.689Z,11.97
2019-04-20T10:34:01.778Z,12.30
2019-04-20T10:36:38.017Z,12.70
2019-04-20T10:39:08.798Z,12.20
2019-04-20T10:41:45.152Z,12.47
2019-04-20T10:44:07.166Z,12.35
2019-04-20T10:46:36.245Z,13.35
2019-04-20T10:49:06.033Z,11.80
2019-04-20T10:51:33.748Z,12.68
2019-04-20T10:54:02.645Z,11.43
2019-04-20T10:56:31.759Z,11.90
2019-04-20T10:59:01.434Z,10.65
2019-04-20T11:01:29.710Z,12.55
2019-04-20T11:03:58.794Z,12.68
2019-04-20T11:06:28.732Z,13.00
2019-04-20T11:08:56.486Z,13.18
2019-04-20T11:11:28.639Z,12.25
2019-04-20T11:13:55.346Z,11.55
2019-04-20T11:16:24.351Z,12.73
2019-04-20T11:18:53.563Z,11.65
2019-04-20T11:21:24.708Z,10.58
2019-04-20T11:23:54.030Z,12.30
2019-04-20T11:26:22.100Z,11.83
2019-04-20T11:28:50.708Z,11.80
2019-04-20T11:31:20.041Z,10.95
2019-04-20T11:33:49.948Z,11.35
2019-04-20T11:36:18.894Z,10.93
2019-04-20T11:38:47.043Z,11.57
2019-04-20T11:41:23.007Z,11.15
2019-04-20T11:43:44.495Z,11.20
2019-04-20T11:46:14.515Z,11.45
2019-04-20T11:48:43.480Z,10.90
2019-04-20T11:51:11.676Z,11.18
2019-04-20T11:53:40.505Z,11.33
2019-04-20T11:56:14.577Z,9.53
2019-04-20T11:58:38.781Z,9.73
2019-04-20T12:01:37.990Z,12.37
2019-04-20T12:04:13.035Z,12.18
2019-04-20T12:06:30.832Z,10.88
2019-04-20T12:09:00.914Z,11.25
2019-04-20T12:11:37.129Z,10.98
2019-04-20T12:13:58.684Z,10.43
2019-04-20T12:16:27.746Z,10.53
2019-04-20T12:18:56.633Z,10.78
2019-04-20T12:21:24.368Z,11.33
2019-04-20T12:23:54.063Z,11.97
2019-04-20T12:26:22.680Z,10.40
2019-04-20T12:28:51.621Z,10.95
2019-04-20T12:31:23.963Z,11.38
2019-04-20T12:33:50.430Z,11.25
2019-04-20T12:36:18.400Z,11.10
2019-04-20T12:38:47.223Z,11.65
2019-04-20T12:41:16.286Z,12.10
2019-04-20T12:43:45.690Z,12.05
2019-04-20T12:46:17.860Z,10.98
2019-04-20T12:48:43.843Z,10.48
2019-04-20T12:51:13.289Z,12.40
2019-04-20T12:53:42.558Z,12.00
2019-04-20T12:56:10.674Z,11.68
2019-04-20T12:58:42.992Z,11.18
2019-04-20T13:01:08.432Z,11.63
2019-04-20T13:03:37.516Z,12.60
2019-04-20T13:06:07.885Z,11.63
2019-04-20T13:08:44.109Z,9.70
2019-04-20T13:11:53.045Z,11.15
2019-04-20T13:14:40.152Z,14.87
2019-04-20T13:17:24.148Z,11.25
2019-04-20T13:23:29.036Z,10.25
2019-04-20T13:39:25.063Z,10.03
2019-04-20T13:49:04.995Z,9.88
2019-04-20T13:52:18.136Z,9.53
2019-04-20T13:55:35.931Z,10.38
2019-04-20T13:59:03.770Z,11.18
2019-04-20T14:02:07.592Z,10.85
2019-04-20T14:05:16.852Z,9.48
2019-04-20T14:16:14.278Z,9.78
2019-04-20T14:16:50.477Z,10.90
2019-04-20T14:25:54.565Z,10.15
2019-04-20T14:27:03.395Z,10.78
2019-04-20T14:28:58.574Z,10.08
2019-04-20T14:34:29.135Z,10.90
2019-04-20T14:37:12.933Z,10.43
2019-04-20T14:39:56.569Z,10.68
2019-04-20T14:42:54.644Z,10.95
2019-04-20T14:46:06.798Z,11.63
2019-04-20T14:51:12.156Z,10.98
2019-04-20T14:52:29.323Z,10.18
2019-04-20T14:55:12.534Z,10.48
2019-04-20T14:58:01.923Z,10.70
2019-04-20T15:01:30.324Z,10.30
2019-04-20T15:04:06.914Z,10.72
2019-04-20T15:06:46.460Z,10.58
2019-04-20T15:10:13.611Z,9.93
2019-04-20T15:16:46.841Z,10.82
2019-04-20T15:20:03.401Z,10.53
2019-04-20T15:26:20.408Z,10.98
2019-04-20T15:29:24.640Z,11.33
2019-04-20T15:32:59.150Z,11.70
2019-04-20T15:35:38.056Z,11.33
2019-04-20T15:41:41.080Z,10.35
2019-04-20T15:44:47.239Z,11.18
2019-04-20T15:47:34.549Z,10.50
2019-04-20T15:50:33.847Z,10.72
2019-04-20T15:53:19.704Z,10.70
2019-04-20T15:56:18.522Z,11.48
2019-04-20T15:58:52.821Z,10.88
2019-04-20T16:02:33.853Z,10.53
2019-04-20T16:09:08.355Z,10.30
2019-04-20T16:11:41.999Z,11.00
2019-04-20T16:14:37.736Z,9.50
2019-04-20T16:17:25.192Z,9.75
2019-04-20T16:20:06.264Z,9.18
2019-04-20T16:23:04.753Z,10.00
2019-04-20T16:26:26.628Z,9.00
2019-04-20T16:29:01.829Z,9.75
2019-04-20T16:31:40.590Z,8.75
2019-04-20T16:34:38.087Z,9.38
2019-04-20T16:37:28.644Z,9.30
2019-04-20T16:40:04.088Z,8.30
2019-04-20T16:43:02.635Z,9.45
2019-04-20T16:49:21.265Z,9.08
2019-04-20T16:52:19.116Z,9.13
2019-04-20T16:54:59.731Z,9.05
2019-04-20T16:57:55.409Z,8.60
2019-04-20T17:00:27.674Z,8.65
2019-04-20T17:09:21.985Z,8.78
2019-04-20T17:18:11.781Z,8.90
2019-04-20T17:21:04.463Z,7.97
2019-04-20T17:23:45.671Z,8.08
2019-04-20T17:29:30.318Z,8.95
2019-04-20T17:32:08.063Z,7.90
2019-04-20T17:35:00.107Z,7.60
2019-04-20T17:37:24.739Z,7.95
2019-04-20T17:40:18.784Z,7.37
2019-04-20T17:42:45.049Z,7.37
2019-04-20T17:45:42.177Z,7.40
2019-04-20T17:51:53.466Z,7.12
2019-04-20T17:54:53.241Z,7.12
2019-04-20T17:59:30.460Z,7.30
2019-04-20T18:00:22.481Z,6.83
2019-04-20T18:03:30.210Z,7.08
2019-04-20T18:06:09.487Z,6.30
2019-04-20T18:08:40.439Z,6.45
2019-04-20T18:10:58.567Z,6.28
2019-04-20T18:13:21.806Z,6.40
2019-04-20T18:16:11.524Z,5.83
2019-04-20T18:18:47.828Z,6.53
2019-04-20T18:21:12.895Z,5.97
2019-04-20T18:23:44.804Z,6.67
2019-04-20T18:26:31.802Z,5.67
2019-04-20T18:29:06.905Z,6.45
2019-04-20T18:31:23.766Z,6.97
2019-04-20T18:33:54.438Z,6.37
2019-04-20T18:36:30.633Z,7.15
2019-04-20T18:38:58.910Z,7.42
2019-04-20T18:41:30.842Z,7.35
2019-04-20T18:43:55.346Z,7.15
2019-04-20T18:46:39.291Z,8.08
2019-04-20T18:49:04.747Z,8.28
2019-04-20T18:51:17.612Z,9.33
2019-04-20T18:53:48.641Z,8.60
2019-04-20T18:56:18.583Z,9.68
2019-04-20T18:58:45.216Z,11.45
2019-04-20T19:01:13.024Z,10.60
2019-04-20T19:03:44.455Z,10.13
2019-04-20T19:06:12.346Z,10.53
2019-04-20T19:08:46.254Z,10.77
2019-04-20T19:11:13.199Z,10.40
2019-04-20T19:13:45.884Z,9.53
2019-04-20T19:16:36.617Z,8.83
2019-04-20T19:19:24.560Z,9.07
2019-04-20T19:21:43.743Z,7.70
2019-04-20T19:24:14.755Z,8.17
2019-04-20T19:26:44.948Z,8.43
2019-04-20T19:29:19.983Z,8.40
2019-04-20T19:31:56.938Z,8.27
2019-04-20T19:34:26.095Z,8.53
2019-04-20T19:36:42.477Z,7.73
2019-04-20T19:39:21.335Z,8.63
2019-04-20T19:41:47.753Z,9.07
2019-04-20T19:44:16.082Z,8.60
2019-04-20T19:46:53.704Z,10.23
2019-04-20T19:49:19.375Z,9.27
2019-04-20T19:52:02.727Z,9.20
2019-04-20T19:54:23.867Z,10.03
2019-04-20T19:56:47.392Z,10.37
2019-04-20T19:59:10.970Z,9.30
2019-04-20T20:01:29.529Z,8.80
2019-04-20T20:04:02.255Z,9.27
2019-04-20T20:06:35.475Z,8.17
2019-04-20T20:09:00.567Z,7.70
2019-04-20T20:11:30.228Z,7.77
2019-04-20T20:13:55.427Z,7.43
2019-04-20T20:16:30.435Z,8.13
2019-04-20T20:19:03.899Z,6.83
2019-04-20T20:21:34.194Z,6.53
2019-04-20T20:23:50.121Z,7.47
2019-04-20T20:26:25.007Z,7.10
2019-04-20T20:29:02.550Z,7.00
2019-04-20T20:31:27.553Z,7.53
2019-04-20T20:33:59.028Z,7.97
2019-04-20T20:36:19.658Z,7.47
2019-04-20T20:38:50.231Z,7.73
2019-04-20T20:41:21.789Z,7.73
2019-04-20T20:43:53.624Z,8.20
2019-04-20T20:46:19.413Z,8.17
2019-04-20T20:49:06.240Z,8.23
2019-04-20T20:51:35.537Z,8.40
2019-04-20T20:53:51.296Z,9.10
2019-04-20T20:56:15.056Z,8.00
2019-04-20T20:58:48.521Z,8.37
2019-04-20T21:01:10.790Z,9.00
2019-04-20T21:03:41.817Z,9.10
2019-04-20T21:06:03.315Z,9.10
2019-04-20T21:08:31.489Z,9.30
2019-04-20T21:11:00.180Z,9.20
2019-04-20T21:13:37.899Z,9.00
2019-04-20T21:16:03.079Z,9.80
2019-04-20T21:18:49.094Z,8.73
2019-04-20T21:21:13.289Z,9.40
2019-04-20T21:23:36.760Z,9.17
2019-04-20T21:26:11.475Z,10.20
2019-04-20T21:28:39.826Z,9.97
2019-04-20T21:31:13.796Z,9.47
2019-04-20T21:33:38.842Z,9.73
2019-04-20T21:36:06.970Z,9.50
2019-04-20T21:38:39.285Z,9.73
2019-04-20T21:41:09.416Z,9.83
2019-04-20T21:43:37.275Z,9.93
2019-04-20T21:46:04.860Z,9.53
2019-04-20T21:48:46.629Z,9.97
2019-04-20T21:51:15.257Z,10.17
2019-04-20T21:53:31.907Z,9.57
2019-04-20T21:55:57.552Z,9.40
2019-04-20T21:58:32.277Z,11.53
2019-04-20T22:01:08.035Z,10.20
2019-04-20T22:03:27.276Z,10.27
2019-04-20T22:06:04.727Z,9.93
2019-04-20T22:08:32.754Z,10.53
2019-04-20T22:11:01.914Z,9.83
2019-04-20T22:13:36.553Z,10.53
2019-04-20T22:16:05.436Z,10.53
2019-04-20T22:18:28.815Z,10.57
2019-04-20T22:21:05.848Z,10.50
2019-04-20T22:23:43.389Z,10.90
2019-04-20T22:26:10.233Z,10.90
2019-04-20T22:28:24.464Z,11.23
2019-04-20T22:30:53.905Z,11.53
2019-04-20T22:33:30.989Z,11.50
2019-04-20T22:35:58.907Z,9.90
2019-04-20T22:38:54.499Z,11.50
2019-04-20T22:41:21.258Z,11.97
2019-04-20T22:43:48.084Z,11.40
2019-04-20T22:46:17.502Z,11.53
2019-04-20T22:48:52.076Z,12.60
2019-04-20T22:51:30.183Z,13.25
2019-04-20T22:53:55.886Z,12.13
2019-04-20T22:56:30.320Z,11.10
2019-04-20T22:58:52.772Z,11.30
2019-04-20T23:01:19.425Z,12.47
2019-04-20T23:03:38.939Z,12.87
2019-04-20T23:06:08.932Z,13.22
2019-04-20T23:08:36.689Z,12.70
2019-04-20T23:11:09.605Z,13.13
2019-04-20T23:13:39.730Z,12.80
2019-04-20T23:16:04.421Z,13.47
2019-04-20T23:18:33.909Z,14.10
2019-04-20T23:21:07.994Z,13.67
2019-04-20T23:23:32.150Z,13.83
2019-04-20T23:26:00.848Z,14.37
2019-04-20T23:28:29.149Z,14.03
2019-04-20T23:31:02.492Z,14.20
2019-04-20T23:33:27.674Z,13.67
2019-04-20T23:35:59.172Z,13.40
2019-04-20T23:38:24.830Z,16.25
2019-04-20T23:40:53.500Z,14.10
2019-04-20T23:43:29.031Z,15.40
2019-04-20T23:46:24.702Z,14.37
2019-04-20T23:49:18.779Z,15.53
2019-04-20T23:51:54.221Z,15.23
2019-04-20T23:54:12.944Z,15.90
2019-04-20T23:56:35.307Z,16.10
2019-04-20T23:59:04.359Z,15.67
